NC57 weather

Craven Regional Medical Center Heliport
New Bern, North Carolina, United States

Public forecast

Using degrees Fahrenheit for public forecast. Weather courtesy of forecast.io.

Closest aviation weather report (METAR) to Craven Regional Medical Center Heliport

Closest report is Coastal Carolina Regional Airport, 2.7 nm (5.1 km) SSE. Retrieved 2019/10/21 01:26 UTC (0 seconds ago):

KEWN 210126Z 31009KT 10SM OVC009 16/16 A2985 RMK AO2 CIG 008V014 T01610156

Closest aviation forecast (TAF) to Craven Regional Medical Center Heliport

Closest forecast is Coastal Carolina Regional Airport, 2.7 nm (5.1 km) SSE. Retrieved 2019-10-21 00:30 UTC (50 minutes ago):

TAF KEWN 202327Z 2100/2124 30008G16KT P6SM SCT008 OVC012 FM210800 32006KT P6SM OVC008 FM211600 34004KT P6SM BKN015 FM212100 VRB03KT P6SM BKN045